createdAt,value
2022-08-07T00:01:12.701Z,47.37
2022-08-07T00:06:29.764Z,47.23
2022-08-07T00:11:35.633Z,47.17
2022-08-07T00:16:50.377Z,47.57
2022-08-07T00:21:56.780Z,47.62
2022-08-07T00:27:07.288Z,46.32
2022-08-07T00:32:13.884Z,46.80
2022-08-07T00:37:17.551Z,46.24
2022-08-07T00:42:20.592Z,46.66
2022-08-07T00:48:08.802Z,43.79
2022-08-07T00:52:53.718Z,45.85
2022-08-07T00:57:56.728Z,46.77
2022-08-07T01:02:59.286Z,46.67
2022-08-07T01:08:01.373Z,47.19
2022-08-07T01:13:03.804Z,47.54
2022-08-07T01:18:06.990Z,47.30
2022-08-07T01:23:15.268Z,47.73
2022-08-07T01:28:18.245Z,48.49
2022-08-07T01:33:24.715Z,48.27
2022-08-07T01:38:33.863Z,48.88
2022-08-07T01:43:47.256Z,49.55
2022-08-07T01:48:49.795Z,49.62
2022-08-07T01:54:12.414Z,50.03
2022-08-07T01:59:32.862Z,49.58
2022-08-07T02:04:57.194Z,49.72
2022-08-07T02:10:07.518Z,50.52
2022-08-07T02:15:23.528Z,51.61
2022-08-07T02:20:31.370Z,51.37
2022-08-07T02:26:31.905Z,51.11
2022-08-07T02:31:10.130Z,51.24
2022-08-07T02:36:31.776Z,51.08
2022-08-07T02:41:41.136Z,50.92
2022-08-07T02:46:55.286Z,50.95
2022-08-07T02:52:01.723Z,51.02
2022-08-07T02:57:06.528Z,50.63
2022-08-07T03:02:10.462Z,50.66
2022-08-07T03:07:15.121Z,50.62
2022-08-07T03:12:22.537Z,50.63
2022-08-07T03:17:53.973Z,50.52
2022-08-07T03:22:59.750Z,50.20
2022-08-07T03:28:09.517Z,50.10
2022-08-07T03:33:27.257Z,49.80
2022-08-07T03:38:43.919Z,49.83
2022-08-07T03:43:57.445Z,49.78
2022-08-07T03:49:04.503Z,49.28
2022-08-07T03:54:35.446Z,49.30
2022-08-07T03:59:37.561Z,48.69
2022-08-07T04:04:50.301Z,48.17
2022-08-07T04:09:53.305Z,48.19
2022-08-07T04:15:01.258Z,47.89
2022-08-07T04:20:12.010Z,47.67
2022-08-07T04:25:15.663Z,47.50
2022-08-07T04:30:21.451Z,47.13
2022-08-07T04:35:51.511Z,46.37
2022-08-07T04:40:59.661Z,46.05
2022-08-07T04:46:59.706Z,45.78
2022-08-07T04:52:34.242Z,45.10
2022-08-07T04:58:24.119Z,44.10
2022-08-07T05:04:00.604Z,44.24
2022-08-07T05:09:01.168Z,43.70
2022-08-07T05:14:51.971Z,43.20
2022-08-07T05:19:46.242Z,42.58
2022-08-07T05:24:55.652Z,41.69
2022-08-07T05:30:00.386Z,39.56
2022-08-07T05:35:03.527Z,37.74
2022-08-07T05:40:18.796Z,35.34
2022-08-07T05:45:31.963Z,33.98
2022-08-07T05:50:50.587Z,32.24
2022-08-07T05:56:02.006Z,31.97
2022-08-07T06:01:10.815Z,32.36
2022-08-07T06:06:17.463Z,32.11
2022-08-07T06:11:22.966Z,32.29
2022-08-07T06:16:32.263Z,32.39
2022-08-07T06:22:14.391Z,32.07
2022-08-07T06:26:58.882Z,31.93
2022-08-07T06:32:06.202Z,29.37
2022-08-07T06:37:10.687Z,27.83
2022-08-07T06:42:26.591Z,28.83
2022-08-07T06:47:48.152Z,26.32
2022-08-07T06:53:04.590Z,24.72
2022-08-07T06:58:12.527Z,23.88
2022-08-07T07:03:39.597Z,25.68
2022-08-07T07:08:46.775Z,26.83
2022-08-07T07:13:58.044Z,28.66
2022-08-07T07:19:54.608Z,30.25
2022-08-07T07:24:29.164Z,31.62
2022-08-07T07:29:56.280Z,32.49
2022-08-07T07:35:04.082Z,38.15
2022-08-07T07:40:14.587Z,37.89
2022-08-07T07:45:19.362Z,36.10
2022-08-07T07:50:35.973Z,32.84
2022-08-07T07:55:45.596Z,33.05
2022-08-07T08:00:58.600Z,31.65
2022-08-07T08:06:02.227Z,30.08
2022-08-07T08:11:07.992Z,27.37
2022-08-07T08:16:17.274Z,24.81
2022-08-07T08:22:02.581Z,25.55
2022-08-07T08:27:09.338Z,26.39
2022-08-07T08:32:18.049Z,26.20
2022-08-07T08:38:00.506Z,24.01
2022-08-07T08:42:56.231Z,21.25
2022-08-07T08:48:32.344Z,18.96
2022-08-07T08:53:54.887Z,16.71
2022-08-07T08:59:13.867Z,15.05
2022-08-07T09:04:30.252Z,15.99
2022-08-07T09:09:36.721Z,16.84
2022-08-07T09:15:00.531Z,17.86
2022-08-07T09:20:42.872Z,18.06
2022-08-07T09:26:22.599Z,19.11
2022-08-07T09:31:54.099Z,19.05
2022-08-07T09:37:08.070Z,20.36
2022-08-07T09:42:43.971Z,21.59
2022-08-07T09:48:50.281Z,22.55
2022-08-07T09:54:02.655Z,22.42
2022-08-07T09:59:46.705Z,20.33
2022-08-07T10:05:13.944Z,17.83
2022-08-07T10:10:22.782Z,16.10
2022-08-07T10:15:45.182Z,15.94
2022-08-07T10:21:19.983Z,16.62
2022-08-07T10:26:53.052Z,16.22
2022-08-07T10:32:37.050Z,15.31
2022-08-07T10:38:21.120Z,13.63
2022-08-07T10:44:08.506Z,13.78
2022-08-07T10:49:49.250Z,13.58
2022-08-07T10:55:01.811Z,13.89
2022-08-07T11:00:39.466Z,14.02
2022-08-07T11:06:21.840Z,14.65
2022-08-07T11:11:37.640Z,16.13
2022-08-07T11:17:07.296Z,18.33
2022-08-07T11:22:46.003Z,24.77
2022-08-07T11:28:04.879Z,27.44
2022-08-07T11:33:59.242Z,28.68
2022-08-07T11:39:19.561Z,28.62
2022-08-07T11:44:36.233Z,31.28
2022-08-07T11:50:31.306Z,33.51
2022-08-07T11:56:09.010Z,33.91
2022-08-07T12:01:25.780Z,35.11
2022-08-07T12:07:10.098Z,37.28
2022-08-07T12:12:28.365Z,37.44
2022-08-07T12:17:58.574Z,36.99
2022-08-07T12:23:09.209Z,38.60
2022-08-07T12:28:44.856Z,38.02
2022-08-07T12:33:56.432Z,38.51
2022-08-07T12:39:42.052Z,38.48
2022-08-07T12:44:30.253Z,38.99
2022-08-07T12:50:34.371Z,37.15
2022-08-07T12:56:02.750Z,36.64
2022-08-07T13:01:06.484Z,36.38
2022-08-07T13:07:00.023Z,36.02
2022-08-07T13:12:17.391Z,36.52
2022-08-07T13:17:39.954Z,35.23
2022-08-07T13:23:09.952Z,32.47
2022-08-07T13:28:39.739Z,29.26
2022-08-07T13:34:33.034Z,27.85
2022-08-07T13:40:32.850Z,27.49
2022-08-07T13:46:07.179Z,28.28
2022-08-07T13:50:34.180Z,28.34
2022-08-07T13:55:55.118Z,29.18
2022-08-07T14:01:09.042Z,30.21
2022-08-07T14:06:12.774Z,31.44
2022-08-07T14:11:19.148Z,31.96
2022-08-07T14:16:33.084Z,32.59
2022-08-07T14:22:02.123Z,32.75
2022-08-07T14:32:43.140Z,34.32
2022-08-07T14:38:05.821Z,35.62
2022-08-07T14:43:58.834Z,35.52
2022-08-07T14:48:41.856Z,36.66
2022-08-07T14:54:05.816Z,36.31
2022-08-07T15:00:03.032Z,37.20
2022-08-07T15:04:40.109Z,36.93
2022-08-07T15:09:59.551Z,34.59
2022-08-07T15:15:08.411Z,36.47
2022-08-07T15:25:55.895Z,36.30
2022-08-07T15:48:00.390Z,40.77
2022-08-07T15:53:02.527Z,41.30
2022-08-07T15:58:10.469Z,42.22
2022-08-07T16:03:46.970Z,42.62
2022-08-07T16:08:49.645Z,43.41
2022-08-07T16:14:20.726Z,43.64
2022-08-07T16:19:59.072Z,43.88
2022-08-07T16:25:52.334Z,42.57
2022-08-07T16:31:49.978Z,43.33
2022-08-07T16:38:04.139Z,43.78
2022-08-07T16:43:01.997Z,45.34
2022-08-07T16:49:10.639Z,45.06
2022-08-07T16:54:32.505Z,45.58
2022-08-07T17:00:17.544Z,45.92
2022-08-07T17:06:19.133Z,45.87
2022-08-07T17:11:27.990Z,46.62
2022-08-07T17:17:04.431Z,46.43
2022-08-07T17:22:15.609Z,47.08
2022-08-07T17:27:23.179Z,47.44
2022-08-07T17:32:53.165Z,46.98
2022-08-07T17:38:33.427Z,47.17
2022-08-07T17:44:01.621Z,48.42
2022-08-07T17:49:23.365Z,48.01
2022-08-07T17:54:54.004Z,48.68
2022-08-07T18:00:05.750Z,48.34
2022-08-07T18:05:21.422Z,49.29
2022-08-07T18:10:39.002Z,49.15
2022-08-07T18:16:13.173Z,49.07
2022-08-07T18:21:51.453Z,49.21
2022-08-07T18:27:18.354Z,48.96
2022-08-07T18:33:10.440Z,49.31
2022-08-07T18:38:57.672Z,49.00
2022-08-07T18:45:09.172Z,49.95
2022-08-07T18:50:30.354Z,50.25
2022-08-07T18:56:00.346Z,50.24
2022-08-07T19:02:33.927Z,50.06
2022-08-07T19:06:55.633Z,50.16
2022-08-07T19:12:20.757Z,49.87
2022-08-07T19:17:55.970Z,50.05
2022-08-07T19:23:17.718Z,50.29
2022-08-07T19:28:57.148Z,50.61
2022-08-07T19:33:58.061Z,51.00
2022-08-07T19:39:09.090Z,51.10
2022-08-07T19:44:21.891Z,51.29
2022-08-07T19:49:57.490Z,52.19
2022-08-07T19:54:56.354Z,51.54
2022-08-07T20:00:08.964Z,51.18
2022-08-07T20:06:00.785Z,51.08
2022-08-07T20:11:04.014Z,52.13
2022-08-07T20:16:35.584Z,51.76
2022-08-07T20:21:47.152Z,51.41
2022-08-07T20:26:54.733Z,51.29
2022-08-07T20:32:02.190Z,51.67
2022-08-07T20:37:05.945Z,52.09
2022-08-07T20:42:11.858Z,52.83
2022-08-07T20:47:24.876Z,54.57
2022-08-07T20:52:50.297Z,57.76
2022-08-07T20:58:03.669Z,60.40
2022-08-07T21:03:19.244Z,60.08
2022-08-07T21:08:37.888Z,61.43
2022-08-07T21:14:16.531Z,61.42
2022-08-07T21:19:13.855Z,62.88
2022-08-07T21:24:21.941Z,62.91
2022-08-07T21:30:02.334Z,62.46
2022-08-07T21:35:12.273Z,63.42
2022-08-07T21:40:36.193Z,63.41
2022-08-07T21:46:10.778Z,62.95
2022-08-07T21:51:32.337Z,64.40
2022-08-07T21:57:30.948Z,63.90
2022-08-07T22:02:46.152Z,64.57
2022-08-07T22:07:58.048Z,63.38
2022-08-07T22:13:09.398Z,64.03
2022-08-07T22:18:20.374Z,64.51
2022-08-07T22:23:40.282Z,64.24
2022-08-07T22:29:03.360Z,63.09
2022-08-07T22:34:13.172Z,63.74
2022-08-07T22:39:53.181Z,63.46
2022-08-07T22:45:00.042Z,63.91
2022-08-07T22:50:48.293Z,63.78
2022-08-07T22:56:08.638Z,63.38
2022-08-07T23:01:41.959Z,63.09
2022-08-07T23:07:40.301Z,63.29
2022-08-07T23:13:48.991Z,63.83
2022-08-07T23:19:48.025Z,64.42
2022-08-07T23:24:56.772Z,65.37
2022-08-07T23:30:37.429Z,65.03
2022-08-07T23:35:55.916Z,65.34
2022-08-07T23:41:47.473Z,64.80
2022-08-07T23:47:16.199Z,64.55
2022-08-07T23:53:06.210Z,65.23
2022-08-07T23:58:18.706Z,64.91
